Silver Lake, Michigan
Current Conditions -  °F | °C
As of 6:55 PM on Friday 31 Oct 2014 (Local Time) from KLDM Reporting Station
Overcast Overcast  
Wind Chill: 27°   Ceiling: 4000
Heat Index: 35°   Visibility: 10mi
Dew Point: 23°   Wind: 12mph
Humidity: 61%   Direction: 20°NNE
Pressure: 30.29"   Gusts: 31mph
Location:  43.6851°N, 86.4584°W
Report Text: KLDM 312255Z AUTO 02010G27KT 10SM OVC040 02/M05 A3029 RMK AO2 T00161051
Loading
Personal Weather Stations






























Interactive Weather Map
Tropical Storm Tracking
New forecast layout! Learn more

10-Day Weather Forecast

Advertisements
Track Severe Weather on mobile